sensor_id;sensor_type;location;lat;lon;timestamp;pressure;altitude;pressure_sealevel;temperature
73937;BMP180;59249;59.736;30.568;2023-05-19T00:01:33;102272.00;;;8.50
73937;BMP180;59249;59.736;30.568;2023-05-19T00:04:05;102259.00;;;8.40
73937;BMP180;59249;59.736;30.568;2023-05-19T00:06:35;102270.00;;;8.40
73937;BMP180;59249;59.736;30.568;2023-05-19T00:09:05;102267.00;;;8.30
73937;BMP180;59249;59.736;30.568;2023-05-19T00:11:36;102270.00;;;8.30
73937;BMP180;59249;59.736;30.568;2023-05-19T00:14:07;102265.00;;;8.20
73937;BMP180;59249;59.736;30.568;2023-05-19T00:16:37;102280.00;;;8.20
73937;BMP180;59249;59.736;30.568;2023-05-19T00:19:09;102283.00;;;8.10
73937;BMP180;59249;59.736;30.568;2023-05-19T00:21:38;102276.00;;;8.10
73937;BMP180;59249;59.736;30.568;2023-05-19T00:24:07;102284.00;;;8.10
73937;BMP180;59249;59.736;30.568;2023-05-19T00:26:36;102280.00;;;8.10
73937;BMP180;59249;59.736;30.568;2023-05-19T00:29:06;102293.00;;;8.00
73937;BMP180;59249;59.736;30.568;2023-05-19T00:31:34;102284.00;;;7.90
73937;BMP180;59249;59.736;30.568;2023-05-19T00:34:03;102295.00;;;7.90
73937;BMP180;59249;59.736;30.568;2023-05-19T00:36:34;102296.00;;;7.90
73937;BMP180;59249;59.736;30.568;2023-05-19T00:39:02;102299.00;;;7.90
73937;BMP180;59249;59.736;30.568;2023-05-19T00:41:31;102302.00;;;7.80
73937;BMP180;59249;59.736;30.568;2023-05-19T00:44:00;102310.00;;;7.80
73937;BMP180;59249;59.736;30.568;2023-05-19T00:46:29;102311.00;;;7.70
73937;BMP180;59249;59.736;30.568;2023-05-19T00:48:58;102319.00;;;7.60
73937;BMP180;59249;59.736;30.568;2023-05-19T00:51:27;102319.00;;;7.60
73937;BMP180;59249;59.736;30.568;2023-05-19T00:53:58;102324.00;;;7.60
73937;BMP180;59249;59.736;30.568;2023-05-19T00:56:27;102329.00;;;7.60
73937;BMP180;59249;59.736;30.568;2023-05-19T00:58:59;102335.00;;;7.60
73937;BMP180;59249;59.736;30.568;2023-05-19T01:01:28;102333.00;;;7.70
73937;BMP180;59249;59.736;30.568;2023-05-19T01:03:58;102333.00;;;7.60
73937;BMP180;59249;59.736;30.568;2023-05-19T01:06:30;102335.00;;;7.60
73937;BMP180;59249;59.736;30.568;2023-05-19T01:09:01;102339.00;;;7.70
73937;BMP180;59249;59.736;30.568;2023-05-19T01:11:30;102332.00;;;7.70
73937;BMP180;59249;59.736;30.568;2023-05-19T01:13:58;102336.00;;;7.80
73937;BMP180;59249;59.736;30.568;2023-05-19T01:16:30;102334.00;;;7.80
73937;BMP180;59249;59.736;30.568;2023-05-19T01:19:13;102345.00;;;7.90
73937;BMP180;59249;59.736;30.568;2023-05-19T01:25:20;102351.00;;;7.80
73937;BMP180;59249;59.736;30.568;2023-05-19T01:31:37;102354.00;;;7.90
73937;BMP180;59249;59.736;30.568;2023-05-19T01:34:11;102358.00;;;7.90
73937;BMP180;59249;59.736;30.568;2023-05-19T01:36:42;102367.00;;;7.90
73937;BMP180;59249;59.736;30.568;2023-05-19T01:39:15;102374.00;;;7.80
73937;BMP180;59249;59.736;30.568;2023-05-19T01:41:44;102359.00;;;7.90
73937;BMP180;59249;59.736;30.568;2023-05-19T01:44:14;102373.00;;;7.90
73937;BMP180;59249;59.736;30.568;2023-05-19T01:46:45;102365.00;;;7.90
73937;BMP180;59249;59.736;30.568;2023-05-19T01:49:14;102371.00;;;7.90
73937;BMP180;59249;59.736;30.568;2023-05-19T01:51:44;102372.00;;;7.90
73937;BMP180;59249;59.736;30.568;2023-05-19T01:54:12;102375.00;;;7.90
73937;BMP180;59249;59.736;30.568;2023-05-19T01:56:48;102373.00;;;8.00
73937;BMP180;59249;59.736;30.568;2023-05-19T01:59:36;102375.00;;;8.30
73937;BMP180;59249;59.736;30.568;2023-05-19T02:02:20;102393.00;;;8.70
73937;BMP180;59249;59.736;30.568;2023-05-19T02:05:04;102381.00;;;8.90
73937;BMP180;59249;59.736;30.568;2023-05-19T02:07:43;102381.00;;;9.10
73937;BMP180;59249;59.736;30.568;2023-05-19T02:10:26;102396.00;;;9.30
73937;BMP180;59249;59.736;30.568;2023-05-19T02:13:03;102394.00;;;9.50
73937;BMP180;59249;59.736;30.568;2023-05-19T02:15:38;102394.00;;;9.70
73937;BMP180;59249;59.736;30.568;2023-05-19T02:18:11;102396.00;;;9.80
73937;BMP180;59249;59.736;30.568;2023-05-19T02:20:48;102403.00;;;10.10
73937;BMP180;59249;59.736;30.568;2023-05-19T02:23:17;102403.00;;;10.40
73937;BMP180;59249;59.736;30.568;2023-05-19T02:25:46;102401.00;;;10.50
73937;BMP180;59249;59.736;30.568;2023-05-19T02:28:14;102405.00;;;10.60
73937;BMP180;59249;59.736;30.568;2023-05-19T02:30:44;102410.00;;;10.70
73937;BMP180;59249;59.736;30.568;2023-05-19T02:33:14;102421.00;;;10.90
73937;BMP180;59249;59.736;30.568;2023-05-19T02:35:45;102411.00;;;10.80
73937;BMP180;59249;59.736;30.568;2023-05-19T02:38:13;102411.00;;;10.80
73937;BMP180;59249;59.736;30.568;2023-05-19T02:40:42;102406.00;;;10.70
73937;BMP180;59249;59.736;30.568;2023-05-19T02:43:11;102403.00;;;10.90
73937;BMP180;59249;59.736;30.568;2023-05-19T02:45:40;102420.00;;;10.50
73937;BMP180;59249;59.736;30.568;2023-05-19T02:48:08;102423.00;;;10.60
73937;BMP180;59249;59.736;30.568;2023-05-19T02:50:39;102421.00;;;10.50
73937;BMP180;59249;59.736;30.568;2023-05-19T02:53:08;102429.00;;;10.70
73937;BMP180;59249;59.736;30.568;2023-05-19T02:55:37;102429.00;;;10.50
73937;BMP180;59249;59.736;30.568;2023-05-19T02:58:06;102423.00;;;10.40
73937;BMP180;59249;59.736;30.568;2023-05-19T03:00:34;102433.00;;;10.40
73937;BMP180;59249;59.736;30.568;2023-05-19T03:03:03;102424.00;;;10.50
73937;BMP180;59249;59.736;30.568;2023-05-19T03:05:32;102431.00;;;10.40
73937;BMP180;59249;59.736;30.568;2023-05-19T03:08:02;102433.00;;;10.80
73937;BMP180;59249;59.736;30.568;2023-05-19T03:10:32;102429.00;;;10.50
73937;BMP180;59249;59.736;30.568;2023-05-19T03:13:01;102424.00;;;10.50
73937;BMP180;59249;59.736;30.568;2023-05-19T03:15:30;102446.00;;;10.40
73937;BMP180;59249;59.736;30.568;2023-05-19T03:17:59;102424.00;;;10.60
73937;BMP180;59249;59.736;30.568;2023-05-19T03:20:28;102439.00;;;10.50
73937;BMP180;59249;59.736;30.568;2023-05-19T03:22:57;102442.00;;;10.30
73937;BMP180;59249;59.736;30.568;2023-05-19T03:25:28;102443.00;;;10.30
73937;BMP180;59249;59.736;30.568;2023-05-19T03:27:57;102454.00;;;9.90
73937;BMP180;59249;59.736;30.568;2023-05-19T03:30:26;102453.00;;;9.60
73937;BMP180;59249;59.736;30.568;2023-05-19T03:33:25;102449.00;;;9.50
73937;BMP180;59249;59.736;30.568;2023-05-19T03:35:56;102464.00;;;9.40
73937;BMP180;59249;59.736;30.568;2023-05-19T03:38:27;102456.00;;;9.20
73937;BMP180;59249;59.736;30.568;2023-05-19T03:40:58;102452.00;;;9.30
73937;BMP180;59249;59.736;30.568;2023-05-19T03:43:27;102460.00;;;9.30
73937;BMP180;59249;59.736;30.568;2023-05-19T03:46:00;102462.00;;;9.30
73937;BMP180;59249;59.736;30.568;2023-05-19T03:48:49;102470.00;;;9.30
73937;BMP180;59249;59.736;30.568;2023-05-19T03:51:38;102452.00;;;9.30
73937;BMP180;59249;59.736;30.568;2023-05-19T03:54:19;102465.00;;;9.50
73937;BMP180;59249;59.736;30.568;2023-05-19T03:56:51;102475.00;;;9.40
73937;BMP180;59249;59.736;30.568;2023-05-19T03:59:20;102476.00;;;9.40
73937;BMP180;59249;59.736;30.568;2023-05-19T04:01:50;102476.00;;;9.30
73937;BMP180;59249;59.736;30.568;2023-05-19T04:04:19;102477.00;;;9.60
73937;BMP180;59249;59.736;30.568;2023-05-19T04:06:48;102460.00;;;9.50
73937;BMP180;59249;59.736;30.568;2023-05-19T04:09:17;102473.00;;;9.70
73937;BMP180;59249;59.736;30.568;2023-05-19T04:11:46;102491.00;;;9.70
73937;BMP180;59249;59.736;30.568;2023-05-19T04:14:16;102484.00;;;9.70
73937;BMP180;59249;59.736;30.568;2023-05-19T04:16:46;102484.00;;;9.80
73937;BMP180;59249;59.736;30.568;2023-05-19T04:19:14;102483.00;;;9.70
73937;BMP180;59249;59.736;30.568;2023-05-19T04:21:43;102482.00;;;9.80
73937;BMP180;59249;59.736;30.568;2023-05-19T04:24:12;102479.00;;;9.80
73937;BMP180;59249;59.736;30.568;2023-05-19T04:26:41;102489.00;;;9.80
73937;BMP180;59249;59.736;30.568;2023-05-19T04:29:15;102494.00;;;9.80
73937;BMP180;59249;59.736;30.568;2023-05-19T04:31:45;102487.00;;;9.70
73937;BMP180;59249;59.736;30.568;2023-05-19T04:34:15;102467.00;;;9.60
73937;BMP180;59249;59.736;30.568;2023-05-19T04:36:46;102488.00;;;9.80
73937;BMP180;59249;59.736;30.568;2023-05-19T04:39:20;102497.00;;;10.10
73937;BMP180;59249;59.736;30.568;2023-05-19T04:41:48;102493.00;;;10.10
73937;BMP180;59249;59.736;30.568;2023-05-19T04:44:19;102492.00;;;10.10
73937;BMP180;59249;59.736;30.568;2023-05-19T04:46:49;102502.00;;;10.10
73937;BMP180;59249;59.736;30.568;2023-05-19T04:49:21;102492.00;;;10.20
73937;BMP180;59249;59.736;30.568;2023-05-19T04:51:54;102504.00;;;10.10
73937;BMP180;59249;59.736;30.568;2023-05-19T04:54:30;102507.00;;;10.00
73937;BMP180;59249;59.736;30.568;2023-05-19T04:57:15;102502.00;;;10.00
73937;BMP180;59249;59.736;30.568;2023-05-19T04:59:49;102500.00;;;9.90
73937;BMP180;59249;59.736;30.568;2023-05-19T05:02:19;102505.00;;;9.70
73937;BMP180;59249;59.736;30.568;2023-05-19T05:04:48;102513.00;;;9.60
73937;BMP180;59249;59.736;30.568;2023-05-19T05:07:17;102496.00;;;9.90
73937;BMP180;59249;59.736;30.568;2023-05-19T05:09:46;102516.00;;;9.90
73937;BMP180;59249;59.736;30.568;2023-05-19T05:12:16;102518.00;;;10.10
73937;BMP180;59249;59.736;30.568;2023-05-19T05:14:49;102520.00;;;10.30
73937;BMP180;59249;59.736;30.568;2023-05-19T05:17:19;102520.00;;;10.20
73937;BMP180;59249;59.736;30.568;2023-05-19T05:19:48;102530.00;;;9.90
73937;BMP180;59249;59.736;30.568;2023-05-19T05:22:18;102536.00;;;10.00
73937;BMP180;59249;59.736;30.568;2023-05-19T05:24:48;102534.00;;;10.00
73937;BMP180;59249;59.736;30.568;2023-05-19T05:27:18;102532.00;;;10.20
73937;BMP180;59249;59.736;30.568;2023-05-19T05:29:47;102528.00;;;10.10
73937;BMP180;59249;59.736;30.568;2023-05-19T05:32:19;102546.00;;;10.20
73937;BMP180;59249;59.736;30.568;2023-05-19T05:34:51;102545.00;;;10.20
73937;BMP180;59249;59.736;30.568;2023-05-19T05:37:21;102534.00;;;10.00
73937;BMP180;59249;59.736;30.568;2023-05-19T05:39:49;102536.00;;;10.10
73937;BMP180;59249;59.736;30.568;2023-05-19T05:42:18;102540.00;;;10.30
73937;BMP180;59249;59.736;30.568;2023-05-19T05:44:50;102536.00;;;10.50
73937;BMP180;59249;59.736;30.568;2023-05-19T05:47:19;102533.00;;;10.60
73937;BMP180;59249;59.736;30.568;2023-05-19T05:49:49;102529.00;;;10.60
73937;BMP180;59249;59.736;30.568;2023-05-19T05:52:20;102544.00;;;10.70
73937;BMP180;59249;59.736;30.568;2023-05-19T05:54:54;102536.00;;;10.70
73937;BMP180;59249;59.736;30.568;2023-05-19T05:57:23;102541.00;;;10.70
73937;BMP180;59249;59.736;30.568;2023-05-19T05:59:54;102547.00;;;10.70
73937;BMP180;59249;59.736;30.568;2023-05-19T06:02:23;102559.00;;;10.50
73937;BMP180;59249;59.736;30.568;2023-05-19T06:04:53;102552.00;;;10.70
73937;BMP180;59249;59.736;30.568;2023-05-19T06:07:25;102559.00;;;10.80
73937;BMP180;59249;59.736;30.568;2023-05-19T06:09:54;102554.00;;;10.90
73937;BMP180;59249;59.736;30.568;2023-05-19T06:12:24;102559.00;;;11.20
73937;BMP180;59249;59.736;30.568;2023-05-19T06:14:55;102563.00;;;11.30
73937;BMP180;59249;59.736;30.568;2023-05-19T06:17:50;102564.00;;;11.60
73937;BMP180;59249;59.736;30.568;2023-05-19T06:20:19;102565.00;;;11.50
73937;BMP180;59249;59.736;30.568;2023-05-19T06:22:48;102573.00;;;11.80
73937;BMP180;59249;59.736;30.568;2023-05-19T06:25:19;102564.00;;;11.70
73937;BMP180;59249;59.736;30.568;2023-05-19T06:27:48;102583.00;;;11.60
73937;BMP180;59249;59.736;30.568;2023-05-19T06:30:20;102594.00;;;11.40
73937;BMP180;59249;59.736;30.568;2023-05-19T06:33:18;102577.00;;;11.20
73937;BMP180;59249;59.736;30.568;2023-05-19T06:35:48;102581.00;;;11.30
73937;BMP180;59249;59.736;30.568;2023-05-19T06:38:16;102589.00;;;11.00
73937;BMP180;59249;59.736;30.568;2023-05-19T06:40:46;102584.00;;;11.00
73937;BMP180;59249;59.736;30.568;2023-05-19T06:43:15;102592.00;;;10.90
73937;BMP180;59249;59.736;30.568;2023-05-19T06:45:56;102573.00;;;11.00
73937;BMP180;59249;59.736;30.568;2023-05-19T06:48:25;102577.00;;;11.30
73937;BMP180;59249;59.736;30.568;2023-05-19T06:50:54;102586.00;;;11.50
73937;BMP180;59249;59.736;30.568;2023-05-19T06:53:23;102583.00;;;11.50
73937;BMP180;59249;59.736;30.568;2023-05-19T06:55:53;102573.00;;;11.70
73937;BMP180;59249;59.736;30.568;2023-05-19T06:58:30;102580.00;;;11.40
73937;BMP180;59249;59.736;30.568;2023-05-19T07:01:03;102568.00;;;11.60
73937;BMP180;59249;59.736;30.568;2023-05-19T07:03:38;102569.00;;;11.50
73937;BMP180;59249;59.736;30.568;2023-05-19T07:06:09;102567.00;;;11.50
73937;BMP180;59249;59.736;30.568;2023-05-19T07:08:37;102580.00;;;11.60
73937;BMP180;59249;59.736;30.568;2023-05-19T07:11:07;102572.00;;;11.80
73937;BMP180;59249;59.736;30.568;2023-05-19T07:13:39;102563.00;;;11.90
73937;BMP180;59249;59.736;30.568;2023-05-19T07:16:10;102566.00;;;12.30
73937;BMP180;59249;59.736;30.568;2023-05-19T07:18:40;102566.00;;;12.40
73937;BMP180;59249;59.736;30.568;2023-05-19T07:21:10;102577.00;;;12.50
73937;BMP180;59249;59.736;30.568;2023-05-19T07:23:39;102562.00;;;12.70
73937;BMP180;59249;59.736;30.568;2023-05-19T07:26:08;102596.00;;;12.60
73937;BMP180;59249;59.736;30.568;2023-05-19T07:28:37;102569.00;;;12.50
73937;BMP180;59249;59.736;30.568;2023-05-19T07:31:09;102574.00;;;12.50
73937;BMP180;59249;59.736;30.568;2023-05-19T07:33:39;102581.00;;;12.40
73937;BMP180;59249;59.736;30.568;2023-05-19T07:36:07;102580.00;;;12.50
73937;BMP180;59249;59.736;30.568;2023-05-19T07:38:36;102590.00;;;12.40
73937;BMP180;59249;59.736;30.568;2023-05-19T07:41:05;102593.00;;;12.50
73937;BMP180;59249;59.736;30.568;2023-05-19T07:43:34;102582.00;;;12.60
73937;BMP180;59249;59.736;30.568;2023-05-19T07:46:04;102590.00;;;12.80
73937;BMP180;59249;59.736;30.568;2023-05-19T07:48:34;102584.00;;;12.80
73937;BMP180;59249;59.736;30.568;2023-05-19T07:51:03;102583.00;;;13.00
73937;BMP180;59249;59.736;30.568;2023-05-19T07:53:31;102591.00;;;13.10
73937;BMP180;59249;59.736;30.568;2023-05-19T07:56:00;102584.00;;;13.20
73937;BMP180;59249;59.736;30.568;2023-05-19T07:58:29;102603.00;;;13.10
73937;BMP180;59249;59.736;30.568;2023-05-19T08:00:58;102583.00;;;12.90
73937;BMP180;59249;59.736;30.568;2023-05-19T08:03:28;102599.00;;;12.80
73937;BMP180;59249;59.736;30.568;2023-05-19T08:05:59;102598.00;;;12.70
73937;BMP180;59249;59.736;30.568;2023-05-19T08:08:28;102585.00;;;12.80
73937;BMP180;59249;59.736;30.568;2023-05-19T08:11:01;102601.00;;;13.00
73937;BMP180;59249;59.736;30.568;2023-05-19T08:13:33;102589.00;;;13.10
73937;BMP180;59249;59.736;30.568;2023-05-19T08:16:04;102602.00;;;13.30
73937;BMP180;59249;59.736;30.568;2023-05-19T08:18:37;102602.00;;;13.40
73937;BMP180;59249;59.736;30.568;2023-05-19T08:21:07;102617.00;;;13.30
73937;BMP180;59249;59.736;30.568;2023-05-19T08:23:37;102598.00;;;13.00
73937;BMP180;59249;59.736;30.568;2023-05-19T08:26:06;102592.00;;;13.10
73937;BMP180;59249;59.736;30.568;2023-05-19T08:28:38;102601.00;;;13.10
73937;BMP180;59249;59.736;30.568;2023-05-19T08:31:07;102595.00;;;13.40
73937;BMP180;59249;59.736;30.568;2023-05-19T08:33:37;102598.00;;;13.60
73937;BMP180;59249;59.736;30.568;2023-05-19T08:36:07;102595.00;;;13.60
73937;BMP180;59249;59.736;30.568;2023-05-19T08:38:36;102575.00;;;13.60
73937;BMP180;59249;59.736;30.568;2023-05-19T08:41:06;102577.00;;;13.70
73937;BMP180;59249;59.736;30.568;2023-05-19T08:43:44;102582.00;;;13.80
73937;BMP180;59249;59.736;30.568;2023-05-19T08:46:15;102593.00;;;13.80
73937;BMP180;59249;59.736;30.568;2023-05-19T08:48:46;102602.00;;;13.80
73937;BMP180;59249;59.736;30.568;2023-05-19T08:51:22;102599.00;;;13.90
73937;BMP180;59249;59.736;30.568;2023-05-19T08:54:11;102602.00;;;14.00
73937;BMP180;59249;59.736;30.568;2023-05-19T08:56:44;102603.00;;;14.20
73937;BMP180;59249;59.736;30.568;2023-05-19T08:59:15;102612.00;;;14.10
73937;BMP180;59249;59.736;30.568;2023-05-19T09:01:47;102614.00;;;14.00
73937;BMP180;59249;59.736;30.568;2023-05-19T09:04:18;102614.00;;;14.10
73937;BMP180;59249;59.736;30.568;2023-05-19T09:06:49;102611.00;;;13.90
73937;BMP180;59249;59.736;30.568;2023-05-19T09:09:22;102600.00;;;14.10
73937;BMP180;59249;59.736;30.568;2023-05-19T09:11:51;102603.00;;;14.30
73937;BMP180;59249;59.736;30.568;2023-05-19T09:14:22;102603.00;;;14.30
73937;BMP180;59249;59.736;30.568;2023-05-19T09:16:54;102611.00;;;14.60
73937;BMP180;59249;59.736;30.568;2023-05-19T09:19:27;102611.00;;;14.30
73937;BMP180;59249;59.736;30.568;2023-05-19T09:22:03;102606.00;;;14.10
73937;BMP180;59249;59.736;30.568;2023-05-19T09:24:33;102603.00;;;14.10
73937;BMP180;59249;59.736;30.568;2023-05-19T09:27:02;102605.00;;;14.30
73937;BMP180;59249;59.736;30.568;2023-05-19T09:29:39;102605.00;;;14.40
73937;BMP180;59249;59.736;30.568;2023-05-19T09:32:24;102607.00;;;14.70
73937;BMP180;59249;59.736;30.568;2023-05-19T09:34:53;102599.00;;;14.80
73937;BMP180;59249;59.736;30.568;2023-05-19T09:37:32;102598.00;;;15.20
73937;BMP180;59249;59.736;30.568;2023-05-19T09:40:07;102600.00;;;15.20
73937;BMP180;59249;59.736;30.568;2023-05-19T09:42:43;102601.00;;;14.80
73937;BMP180;59249;59.736;30.568;2023-05-19T09:45:15;102612.00;;;15.00
73937;BMP180;59249;59.736;30.568;2023-05-19T09:47:44;102621.00;;;15.10
73937;BMP180;59249;59.736;30.568;2023-05-19T09:50:13;102594.00;;;15.00
73937;BMP180;59249;59.736;30.568;2023-05-19T09:52:44;102601.00;;;15.10
73937;BMP180;59249;59.736;30.568;2023-05-19T09:55:17;102610.00;;;14.50
73937;BMP180;59249;59.736;30.568;2023-05-19T09:57:49;102598.00;;;14.30
73937;BMP180;59249;59.736;30.568;2023-05-19T10:00:21;102593.00;;;14.70
73937;BMP180;59249;59.736;30.568;2023-05-19T10:02:59;102588.00;;;14.80
73937;BMP180;59249;59.736;30.568;2023-05-19T10:05:37;102593.00;;;15.00
73937;BMP180;59249;59.736;30.568;2023-05-19T10:08:12;102589.00;;;14.80
73937;BMP180;59249;59.736;30.568;2023-05-19T10:10:53;102575.00;;;14.70
73937;BMP180;59249;59.736;30.568;2023-05-19T10:13:23;102587.00;;;14.80
73937;BMP180;59249;59.736;30.568;2023-05-19T10:15:54;102600.00;;;14.50
73937;BMP180;59249;59.736;30.568;2023-05-19T10:18:28;102584.00;;;14.80
73937;BMP180;59249;59.736;30.568;2023-05-19T10:20:59;102582.00;;;14.80
73937;BMP180;59249;59.736;30.568;2023-05-19T10:23:30;102578.00;;;15.00
73937;BMP180;59249;59.736;30.568;2023-05-19T10:26:00;102588.00;;;15.10
73937;BMP180;59249;59.736;30.568;2023-05-19T10:28:34;102610.00;;;15.10
73937;BMP180;59249;59.736;30.568;2023-05-19T10:31:11;102589.00;;;15.30
73937;BMP180;59249;59.736;30.568;2023-05-19T10:34:00;102583.00;;;15.60
73937;BMP180;59249;59.736;30.568;2023-05-19T10:36:51;102602.00;;;15.50
73937;BMP180;59249;59.736;30.568;2023-05-19T10:39:40;102589.00;;;15.60
73937;BMP180;59249;59.736;30.568;2023-05-19T10:42:14;102580.00;;;15.70
73937;BMP180;59249;59.736;30.568;2023-05-19T10:45:01;102585.00;;;15.70
73937;BMP180;59249;59.736;30.568;2023-05-19T10:47:42;102588.00;;;15.60
73937;BMP180;59249;59.736;30.568;2023-05-19T10:50:14;102586.00;;;15.60
73937;BMP180;59249;59.736;30.568;2023-05-19T10:52:52;102579.00;;;15.70
73937;BMP180;59249;59.736;30.568;2023-05-19T10:55:44;102570.00;;;15.80
73937;BMP180;59249;59.736;30.568;2023-05-19T10:58:48;102580.00;;;15.60
73937;BMP180;59249;59.736;30.568;2023-05-19T11:01:19;102585.00;;;15.20
73937;BMP180;59249;59.736;30.568;2023-05-19T11:03:53;102583.00;;;15.30
73937;BMP180;59249;59.736;30.568;2023-05-19T11:06:39;102576.00;;;15.50
73937;BMP180;59249;59.736;30.568;2023-05-19T11:09:17;102579.00;;;15.70
73937;BMP180;59249;59.736;30.568;2023-05-19T11:12:12;102591.00;;;15.20
73937;BMP180;59249;59.736;30.568;2023-05-19T11:14:51;102589.00;;;15.10
73937;BMP180;59249;59.736;30.568;2023-05-19T11:17:23;102583.00;;;15.40
73937;BMP180;59249;59.736;30.568;2023-05-19T11:19:56;102582.00;;;15.60
73937;BMP180;59249;59.736;30.568;2023-05-19T11:22:27;102572.00;;;15.70
73937;BMP180;59249;59.736;30.568;2023-05-19T11:24:57;102571.00;;;15.80
73937;BMP180;59249;59.736;30.568;2023-05-19T11:27:28;102591.00;;;15.70
73937;BMP180;59249;59.736;30.568;2023-05-19T11:30:00;102603.00;;;15.60
73937;BMP180;59249;59.736;30.568;2023-05-19T11:32:46;102593.00;;;15.80
73937;BMP180;59249;59.736;30.568;2023-05-19T11:35:22;102589.00;;;15.70
73937;BMP180;59249;59.736;30.568;2023-05-19T11:37:55;102576.00;;;15.90
73937;BMP180;59249;59.736;30.568;2023-05-19T11:40:43;102590.00;;;15.80
73937;BMP180;59249;59.736;30.568;2023-05-19T11:43:17;102583.00;;;15.70
73937;BMP180;59249;59.736;30.568;2023-05-19T11:45:50;102586.00;;;15.70
73937;BMP180;59249;59.736;30.568;2023-05-19T11:48:21;102582.00;;;15.90
73937;BMP180;59249;59.736;30.568;2023-05-19T11:51:02;102589.00;;;15.90
73937;BMP180;59249;59.736;30.568;2023-05-19T11:53:33;102580.00;;;16.00
73937;BMP180;59249;59.736;30.568;2023-05-19T11:56:07;102576.00;;;16.20
73937;BMP180;59249;59.736;30.568;2023-05-19T11:58:40;102577.00;;;16.20
73937;BMP180;59249;59.736;30.568;2023-05-19T12:01:10;102573.00;;;16.20
73937;BMP180;59249;59.736;30.568;2023-05-19T12:03:40;102554.00;;;16.20
73937;BMP180;59249;59.736;30.568;2023-05-19T12:06:13;102565.00;;;16.10
73937;BMP180;59249;59.736;30.568;2023-05-19T12:08:44;102566.00;;;16.10
73937;BMP180;59249;59.736;30.568;2023-05-19T12:11:14;102570.00;;;16.20
73937;BMP180;59249;59.736;30.568;2023-05-19T12:13:47;102582.00;;;16.40
73937;BMP180;59249;59.736;30.568;2023-05-19T12:16:33;102579.00;;;16.50
73937;BMP180;59249;59.736;30.568;2023-05-19T12:19:08;102590.00;;;16.10
73937;BMP180;59249;59.736;30.568;2023-05-19T12:21:41;102574.00;;;16.40
73937;BMP180;59249;59.736;30.568;2023-05-19T12:24:13;102583.00;;;16.20
73937;BMP180;59249;59.736;30.568;2023-05-19T12:30:05;102571.00;;;16.40
73937;BMP180;59249;59.736;30.568;2023-05-19T12:32:38;102560.00;;;16.50
73937;BMP180;59249;59.736;30.568;2023-05-19T12:35:08;102577.00;;;16.60
73937;BMP180;59249;59.736;30.568;2023-05-19T12:37:42;102579.00;;;16.60
73937;BMP180;59249;59.736;30.568;2023-05-19T12:40:14;102577.00;;;16.70
73937;BMP180;59249;59.736;30.568;2023-05-19T12:42:47;102583.00;;;16.80
73937;BMP180;59249;59.736;30.568;2023-05-19T12:45:33;102574.00;;;16.70
73937;BMP180;59249;59.736;30.568;2023-05-19T12:48:11;102587.00;;;16.60
73937;BMP180;59249;59.736;30.568;2023-05-19T12:50:44;102569.00;;;16.60
73937;BMP180;59249;59.736;30.568;2023-05-19T12:53:14;102573.00;;;16.70
73937;BMP180;59249;59.736;30.568;2023-05-19T12:55:44;102588.00;;;16.90
73937;BMP180;59249;59.736;30.568;2023-05-19T12:58:41;102594.00;;;16.80
73937;BMP180;59249;59.736;30.568;2023-05-19T13:01:23;102591.00;;;16.70
73937;BMP180;59249;59.736;30.568;2023-05-19T13:03:59;102590.00;;;16.70
73937;BMP180;59249;59.736;30.568;2023-05-19T13:06:39;102595.00;;;17.00
73937;BMP180;59249;59.736;30.568;2023-05-19T13:09:20;102594.00;;;17.20
73937;BMP180;59249;59.736;30.568;2023-05-19T13:11:50;102612.00;;;17.00
73937;BMP180;59249;59.736;30.568;2023-05-19T13:14:21;102594.00;;;16.80
73937;BMP180;59249;59.736;30.568;2023-05-19T13:17:01;102591.00;;;16.80
73937;BMP180;59249;59.736;30.568;2023-05-19T13:19:36;102583.00;;;17.00
73937;BMP180;59249;59.736;30.568;2023-05-19T13:22:05;102592.00;;;17.20
73937;BMP180;59249;59.736;30.568;2023-05-19T13:24:37;102588.00;;;17.30
73937;BMP180;59249;59.736;30.568;2023-05-19T13:27:17;102591.00;;;17.20
73937;BMP180;59249;59.736;30.568;2023-05-19T13:29:59;102591.00;;;17.20
73937;BMP180;59249;59.736;30.568;2023-05-19T13:32:33;102590.00;;;17.10
73937;BMP180;59249;59.736;30.568;2023-05-19T13:35:05;102609.00;;;16.90
73937;BMP180;59249;59.736;30.568;2023-05-19T13:37:41;102587.00;;;16.60
73937;BMP180;59249;59.736;30.568;2023-05-19T13:40:11;102596.00;;;16.70
73937;BMP180;59249;59.736;30.568;2023-05-19T13:42:45;102602.00;;;16.90
73937;BMP180;59249;59.736;30.568;2023-05-19T13:45:19;102591.00;;;17.10
73937;BMP180;59249;59.736;30.568;2023-05-19T13:47:50;102596.00;;;17.30
73937;BMP180;59249;59.736;30.568;2023-05-19T13:50:20;102600.00;;;17.10
73937;BMP180;59249;59.736;30.568;2023-05-19T13:52:52;102598.00;;;17.10
73937;BMP180;59249;59.736;30.568;2023-05-19T13:55:22;102619.00;;;16.60
73937;BMP180;59249;59.736;30.568;2023-05-19T13:57:53;102596.00;;;16.80
73937;BMP180;59249;59.736;30.568;2023-05-19T14:00:28;102605.00;;;16.80
73937;BMP180;59249;59.736;30.568;2023-05-19T14:03:02;102608.00;;;17.00
73937;BMP180;59249;59.736;30.568;2023-05-19T14:05:33;102611.00;;;17.00
73937;BMP180;59249;59.736;30.568;2023-05-19T14:08:07;102601.00;;;17.00
73937;BMP180;59249;59.736;30.568;2023-05-19T14:10:39;102593.00;;;17.00
73937;BMP180;59249;59.736;30.568;2023-05-19T14:13:09;102593.00;;;17.00
73937;BMP180;59249;59.736;30.568;2023-05-19T14:15:59;102605.00;;;17.10
73937;BMP180;59249;59.736;30.568;2023-05-19T14:18:38;102598.00;;;17.40
73937;BMP180;59249;59.736;30.568;2023-05-19T14:21:09;102601.00;;;17.70
73937;BMP180;59249;59.736;30.568;2023-05-19T14:23:41;102613.00;;;17.70
73937;BMP180;59249;59.736;30.568;2023-05-19T14:26:16;102609.00;;;17.90
73937;BMP180;59249;59.736;30.568;2023-05-19T14:28:55;102597.00;;;17.90